createdAt,value
2023-02-20T05:59:28.179Z,9.00
2023-02-20T06:01:58.874Z,5.90
2023-02-20T06:04:28.118Z,6.50
2023-02-20T06:06:56.484Z,6.20
2023-02-20T06:09:25.191Z,11.90
2023-02-20T06:11:56.597Z,6.40
2023-02-20T06:14:26.570Z,5.50
2023-02-20T06:16:57.960Z,8.10
2023-02-20T06:19:26.251Z,9.00
2023-02-20T06:21:54.872Z,7.70
2023-02-20T06:24:23.059Z,9.90
2023-02-20T06:26:52.412Z,7.70
2023-02-20T06:29:20.716Z,5.80
2023-02-20T06:31:49.430Z,10.50
2023-02-20T06:34:17.920Z,11.00
2023-02-20T06:36:46.266Z,9.10
2023-02-20T06:39:15.828Z,8.50
2023-02-20T06:41:45.336Z,8.70
2023-02-20T06:44:13.632Z,12.40
2023-02-20T06:46:42.133Z,7.40
2023-02-20T06:49:10.611Z,9.50
2023-02-20T06:51:41.234Z,15.00
2023-02-20T06:54:12.698Z,8.30
2023-02-20T06:56:40.907Z,7.80
2023-02-20T06:59:09.476Z,6.50
2023-02-20T07:01:42.303Z,7.60
2023-02-20T07:04:26.683Z,7.70
2023-02-20T07:06:56.404Z,7.40
2023-02-20T07:09:25.525Z,7.00
2023-02-20T07:11:54.786Z,7.60
2023-02-20T07:14:41.463Z,6.30
2023-02-20T07:17:09.655Z,5.10
2023-02-20T07:19:37.833Z,6.50
2023-02-20T07:22:06.005Z,9.70
2023-02-20T07:24:36.434Z,8.10
2023-02-20T07:29:32.500Z,7.30
2023-02-20T07:32:01.084Z,7.10
2023-02-20T07:34:29.443Z,5.20
2023-02-20T07:36:57.751Z,6.10
2023-02-20T07:39:26.712Z,7.30
2023-02-20T07:41:54.992Z,11.20
2023-02-20T07:44:46.823Z,4.50
2023-02-20T07:49:44.750Z,8.00
2023-02-20T07:52:12.903Z,5.20
2023-02-20T07:54:41.049Z,4.90
2023-02-20T07:57:09.870Z,4.60
2023-02-20T07:59:38.079Z,6.90
2023-02-20T08:02:06.868Z,5.60
2023-02-20T08:04:35.088Z,4.80
2023-02-20T08:07:03.732Z,4.00
2023-02-20T08:09:31.836Z,5.60
2023-02-20T08:12:00.011Z,3.90
2023-02-20T08:14:28.611Z,3.90
2023-02-20T08:16:56.874Z,3.90
2023-02-20T08:19:25.112Z,4.60
2023-02-20T08:21:53.305Z,5.80
2023-02-20T08:24:21.488Z,5.20
2023-02-20T08:26:49.735Z,5.40
2023-02-20T08:29:17.953Z,5.10
2023-02-20T08:31:46.624Z,4.80
2023-02-20T08:34:14.857Z,5.20
2023-02-20T08:36:43.032Z,7.70
2023-02-20T08:39:11.340Z,3.80
2023-02-20T08:41:47.157Z,3.90
2023-02-20T08:44:15.442Z,3.60
2023-02-20T08:46:49.636Z,4.20
2023-02-20T08:49:20.172Z,3.40
2023-02-20T08:51:53.981Z,6.50
2023-02-20T08:54:22.640Z,4.60
2023-02-20T08:56:50.794Z,7.20
2023-02-20T08:59:19.007Z,3.80
2023-02-20T09:01:47.417Z,2.80
2023-02-20T09:04:17.185Z,3.10
2023-02-20T09:06:45.364Z,3.00
2023-02-20T09:09:13.869Z,5.00
2023-02-20T09:11:42.137Z,3.90
2023-02-20T09:14:10.478Z,5.70
2023-02-20T09:16:42.069Z,4.10
2023-02-20T09:19:10.491Z,4.00
2023-02-20T09:21:38.644Z,4.90
2023-02-20T09:24:06.928Z,3.90
2023-02-20T09:26:35.073Z,4.60
2023-02-20T09:29:03.368Z,4.00
2023-02-20T09:31:31.586Z,5.50
2023-02-20T09:34:01.019Z,3.60
2023-02-20T09:36:30.055Z,4.30
2023-02-20T09:38:58.212Z,2.90
2023-02-20T09:41:54.289Z,3.80
2023-02-20T09:44:51.605Z,4.40
2023-02-20T09:47:41.392Z,4.90
2023-02-20T09:50:33.330Z,3.10
2023-02-20T09:53:26.355Z,5.60
2023-02-20T09:55:56.589Z,5.90
2023-02-20T09:58:36.829Z,4.80
2023-02-20T10:01:06.774Z,4.60
2023-02-20T10:03:52.535Z,4.40
2023-02-20T10:06:24.830Z,4.60
2023-02-20T10:08:53.698Z,5.50
2023-02-20T10:12:05.384Z,3.20
2023-02-20T10:14:52.930Z,5.10
2023-02-20T10:17:42.544Z,4.20
2023-02-20T10:20:22.727Z,4.20
2023-02-20T10:23:21.381Z,4.60
2023-02-20T10:25:56.612Z,3.00
2023-02-20T10:28:24.958Z,5.30
2023-02-20T10:31:18.721Z,3.20
2023-02-20T10:33:58.626Z,2.60
2023-02-20T10:36:31.362Z,4.20
2023-02-20T10:39:14.661Z,3.30
2023-02-20T10:45:09.743Z,2.30
2023-02-20T10:47:54.888Z,7.20
2023-02-20T10:50:39.353Z,3.30
2023-02-20T10:53:27.716Z,7.40
2023-02-20T10:56:38.755Z,4.20
2023-02-20T10:59:19.589Z,5.80
2023-02-20T11:01:54.869Z,4.30
2023-02-20T11:04:31.072Z,4.00
2023-02-20T11:07:03.489Z,7.20
2023-02-20T11:09:31.862Z,4.90
2023-02-20T11:12:00.603Z,3.70
2023-02-20T11:14:48.777Z,5.40
2023-02-20T11:17:21.458Z,3.40
2023-02-20T11:19:53.900Z,3.30
2023-02-20T11:22:46.166Z,4.10
2023-02-20T11:25:27.840Z,5.10
2023-02-20T11:28:07.593Z,6.50
2023-02-20T11:30:42.618Z,7.20
2023-02-20T11:33:23.886Z,6.20
2023-02-20T11:36:20.504Z,8.10
2023-02-20T11:38:57.872Z,3.50
2023-02-20T11:41:39.744Z,2.70
2023-02-20T11:44:10.940Z,2.90
2023-02-20T11:46:39.608Z,8.50
2023-02-20T11:49:27.318Z,2.50
2023-02-20T11:52:21.343Z,2.10
2023-02-20T11:55:12.856Z,6.20
2023-02-20T11:57:46.052Z,2.60
2023-02-20T12:02:54.709Z,4.60
2023-02-20T12:05:44.780Z,3.10
2023-02-20T12:08:37.105Z,2.40
2023-02-20T12:11:09.598Z,2.90
2023-02-20T12:13:44.908Z,2.00
2023-02-20T12:16:45.986Z,3.40
2023-02-20T12:19:37.372Z,2.80
2023-02-20T12:22:27.431Z,3.20
2023-02-20T12:25:38.200Z,5.10
2023-02-20T12:28:24.997Z,3.10
2023-02-20T12:31:20.707Z,3.40
2023-02-20T12:33:58.023Z,3.30
2023-02-20T12:36:38.480Z,3.90
2023-02-20T12:39:57.127Z,4.20
2023-02-20T12:42:51.601Z,3.30
2023-02-20T12:45:58.116Z,2.60
2023-02-20T12:48:56.921Z,2.00
2023-02-20T12:51:41.865Z,4.90
2023-02-20T12:54:20.835Z,5.60
2023-02-20T12:57:10.704Z,3.60
2023-02-20T12:59:44.915Z,2.70
2023-02-20T13:02:43.624Z,3.80
2023-02-20T13:05:20.489Z,2.90
2023-02-20T13:08:04.007Z,2.20
2023-02-20T13:10:47.033Z,1.60
2023-02-20T13:13:16.865Z,5.20
2023-02-20T13:16:19.853Z,1.60
2023-02-20T13:19:35.242Z,1.80
2023-02-20T13:22:04.287Z,4.10
2023-02-20T13:24:41.610Z,4.50
2023-02-20T13:27:27.252Z,3.40
2023-02-20T13:30:19.078Z,3.30
2023-02-20T13:32:47.420Z,2.90
2023-02-20T13:35:50.306Z,2.90
2023-02-20T13:38:22.400Z,3.60
2023-02-20T13:40:56.302Z,3.70
2023-02-20T13:43:27.211Z,4.70
2023-02-20T13:46:03.381Z,4.10
2023-02-20T13:48:31.494Z,4.70
2023-02-20T13:51:14.703Z,7.30
2023-02-20T13:53:55.764Z,3.40
2023-02-20T13:56:47.345Z,3.20
2023-02-20T13:59:19.486Z,2.30
2023-02-20T14:02:15.985Z,3.00
2023-02-20T14:04:57.059Z,3.30
2023-02-20T14:07:44.179Z,4.20
2023-02-20T14:10:29.894Z,8.00
2023-02-20T14:13:14.269Z,16.10
2023-02-20T14:15:50.710Z,7.50
2023-02-20T14:18:24.403Z,5.00
2023-02-20T14:21:19.426Z,5.20
2023-02-20T14:23:49.153Z,4.30
2023-02-20T14:26:34.413Z,3.30
2023-02-20T14:29:02.684Z,4.80
2023-02-20T14:31:37.581Z,2.40
2023-02-20T14:35:58.108Z,5.80
2023-02-20T14:39:08.348Z,3.50
2023-02-20T14:41:37.619Z,4.30
2023-02-20T14:44:18.460Z,2.50
2023-02-20T14:46:48.132Z,3.00
2023-02-20T14:49:33.720Z,1.90
2023-02-20T14:52:27.337Z,2.30
2023-02-20T14:55:06.970Z,2.00
2023-02-20T14:57:35.412Z,5.50
2023-02-20T15:00:20.706Z,2.30
2023-02-20T15:02:55.536Z,2.50
2023-02-20T15:05:32.542Z,2.30
2023-02-20T15:08:22.138Z,1.50
2023-02-20T15:10:57.970Z,3.10
2023-02-20T15:13:31.094Z,2.40
2023-02-20T15:16:28.596Z,1.80
2023-02-20T15:18:57.397Z,2.60
2023-02-20T15:21:36.519Z,2.40
2023-02-20T15:24:28.113Z,2.40
2023-02-20T15:27:24.492Z,1.80
2023-02-20T15:30:28.380Z,2.30
2023-02-20T15:32:58.808Z,3.20
2023-02-20T15:35:32.567Z,1.70
2023-02-20T15:38:05.014Z,1.70
2023-02-20T15:40:33.901Z,1.50
2023-02-20T15:43:04.852Z,2.00
2023-02-20T15:45:41.706Z,2.70
2023-02-20T15:48:10.616Z,1.80
2023-02-20T15:50:38.894Z,1.90
2023-02-20T15:53:08.680Z,2.00
2023-02-20T15:55:37.083Z,2.10
2023-02-20T15:58:34.902Z,1.90
2023-02-20T16:01:26.922Z,4.40
2023-02-20T16:03:55.202Z,4.30
2023-02-20T16:06:24.490Z,5.80
2023-02-20T16:08:53.931Z,5.80
2023-02-20T16:11:26.556Z,4.90
2023-02-20T16:14:01.048Z,3.90
2023-02-20T16:16:43.246Z,5.50
2023-02-20T16:19:24.038Z,4.70
2023-02-20T16:21:59.495Z,4.70
2023-02-20T16:24:27.994Z,7.20
2023-02-20T16:26:56.298Z,7.80
2023-02-20T16:29:36.515Z,5.50
2023-02-20T16:32:04.739Z,8.20
2023-02-20T16:34:35.335Z,6.70
2023-02-20T16:37:03.671Z,7.40
2023-02-20T16:39:31.908Z,7.20
2023-02-20T16:42:00.191Z,9.00
2023-02-20T16:44:38.918Z,6.80
2023-02-20T16:47:17.769Z,7.10
2023-02-20T16:49:47.933Z,8.00
2023-02-20T16:52:23.078Z,7.60
2023-02-20T16:54:52.899Z,7.00
2023-02-20T16:57:23.988Z,12.70
2023-02-20T16:59:55.959Z,8.50
2023-02-20T17:02:28.872Z,6.40
2023-02-20T17:04:58.664Z,5.40
2023-02-20T17:07:27.803Z,6.10
2023-02-20T17:09:55.995Z,8.30
2023-02-20T17:12:24.709Z,6.60
2023-02-20T17:14:53.825Z,6.00
2023-02-20T17:17:22.252Z,10.70
2023-02-20T17:19:55.514Z,12.20
2023-02-20T17:22:25.004Z,9.40
2023-02-20T17:24:54.704Z,9.30
2023-02-20T17:27:24.384Z,9.60
2023-02-20T17:29:52.599Z,9.50
2023-02-20T17:32:20.910Z,11.50
2023-02-20T17:34:49.255Z,15.00
2023-02-20T17:37:17.407Z,17.20
2023-02-20T17:39:45.595Z,19.60
2023-02-20T17:42:13.871Z,18.70
2023-02-20T17:44:42.080Z,13.00
2023-02-20T17:47:10.737Z,25.30
2023-02-20T17:49:41.399Z,15.00
2023-02-20T17:52:10.951Z,15.30
2023-02-20T17:54:43.918Z,21.20
2023-02-20T17:57:12.930Z,23.90
2023-02-20T17:59:42.180Z,20.50
2023-02-20T18:02:13.363Z,17.90
2023-02-20T18:04:43.037Z,21.50
2023-02-20T18:07:13.195Z,24.30
2023-02-20T18:09:41.518Z,29.00
2023-02-20T18:12:09.829Z,25.00
2023-02-20T18:14:37.998Z,24.60
2023-02-20T18:17:07.701Z,29.90
2023-02-20T18:19:36.060Z,30.80
2023-02-20T18:22:04.475Z,31.50
2023-02-20T18:24:33.572Z,34.20
2023-02-20T18:27:01.768Z,35.10
2023-02-20T18:29:30.351Z,34.60
2023-02-20T18:31:59.641Z,24.80
2023-02-20T18:34:28.912Z,29.00
2023-02-20T18:36:57.281Z,16.10
2023-02-20T18:39:25.495Z,35.20
2023-02-20T18:41:57.107Z,38.80
2023-02-20T18:44:25.427Z,43.90
2023-02-20T18:46:53.663Z,40.90
2023-02-20T18:49:21.865Z,36.10
2023-02-20T18:51:50.415Z,39.50
2023-02-20T18:54:27.113Z,32.20
2023-02-20T18:56:56.139Z,35.90
2023-02-20T18:59:26.325Z,38.60
2023-02-20T19:01:55.816Z,34.70
2023-02-20T19:04:25.267Z,32.30
2023-02-20T19:06:53.589Z,30.60
2023-02-20T19:09:24.515Z,34.90
2023-02-20T19:11:56.031Z,36.20
2023-02-20T19:14:27.505Z,30.90
2023-02-20T19:19:30.710Z,29.10
2023-02-20T19:21:59.057Z,36.80
2023-02-20T19:24:27.584Z,37.70
2023-02-20T19:26:55.714Z,37.00
2023-02-20T19:29:23.879Z,36.50
2023-02-20T19:31:52.142Z,35.50
2023-02-20T19:34:20.409Z,37.80
2023-02-20T19:36:48.629Z,35.40
2023-02-20T19:39:16.803Z,41.00
2023-02-20T19:41:49.458Z,42.90
2023-02-20T19:44:17.884Z,48.70
2023-02-20T19:46:46.043Z,45.70
2023-02-20T19:49:14.242Z,49.10
2023-02-20T19:51:55.188Z,44.10
2023-02-20T19:54:27.757Z,44.90
2023-02-20T19:57:04.230Z,44.60
2023-02-20T19:59:32.378Z,50.30
2023-02-20T20:02:01.572Z,47.30
2023-02-20T20:04:32.937Z,38.00
2023-02-20T20:07:03.210Z,37.60
2023-02-20T20:09:37.433Z,36.90
2023-02-20T20:12:27.997Z,34.80
2023-02-20T20:14:56.442Z,36.90
2023-02-20T20:17:24.773Z,50.00
2023-02-20T20:19:58.741Z,44.70
2023-02-20T20:22:31.413Z,47.20
2023-02-20T20:24:59.644Z,45.70
2023-02-20T20:27:28.046Z,46.30
2023-02-20T20:29:56.598Z,53.00
2023-02-20T20:32:25.066Z,48.80
2023-02-20T20:34:55.428Z,54.10
2023-02-20T20:37:27.530Z,52.90
2023-02-20T20:39:59.305Z,53.90
2023-02-20T20:42:28.771Z,51.00
2023-02-20T20:44:58.959Z,69.20
2023-02-20T20:47:30.148Z,65.40
2023-02-20T20:49:59.622Z,67.90
2023-02-20T20:52:30.976Z,63.10
2023-02-20T20:55:02.883Z,71.90
2023-02-20T20:57:37.972Z,72.00
2023-02-20T21:00:10.629Z,75.30
2023-02-20T21:02:38.843Z,70.50
2023-02-20T21:05:10.662Z,76.50
2023-02-20T21:07:40.676Z,91.60
2023-02-20T21:10:09.792Z,57.40
2023-02-20T21:12:39.410Z,58.10
2023-02-20T21:15:10.464Z,49.70
2023-02-20T21:17:40.550Z,42.30
2023-02-20T21:20:18.852Z,42.80
2023-02-20T21:22:47.638Z,33.90
2023-02-20T21:25:21.823Z,34.90
2023-02-20T21:27:51.174Z,32.20
2023-02-20T21:30:21.068Z,30.30
2023-02-20T21:32:49.463Z,39.80
2023-02-20T21:35:20.607Z,34.50
2023-02-20T21:37:49.235Z,36.60
2023-02-20T21:40:18.954Z,39.70
2023-02-20T21:43:05.674Z,39.30
2023-02-20T21:45:36.359Z,41.20
2023-02-20T21:48:05.750Z,41.70
2023-02-20T21:50:33.981Z,44.40
2023-02-20T21:53:02.221Z,47.90
2023-02-20T21:55:30.628Z,47.20
2023-02-20T21:57:58.737Z,63.00
2023-02-20T22:00:26.810Z,56.50
2023-02-20T22:02:54.958Z,56.70
2023-02-20T22:05:23.111Z,48.80
2023-02-20T22:08:09.886Z,46.80
2023-02-20T22:10:57.002Z,47.20
2023-02-20T22:13:44.542Z,50.00
2023-02-20T22:16:40.259Z,44.80
2023-02-20T22:19:27.191Z,44.20
2023-02-20T22:22:14.257Z,48.00
2023-02-20T22:25:01.297Z,36.80
2023-02-20T22:27:48.277Z,39.90
2023-02-20T22:30:35.427Z,50.00
2023-02-20T22:33:22.257Z,46.60
2023-02-20T22:36:08.919Z,39.70
2023-02-20T22:38:55.891Z,41.80
2023-02-20T22:41:42.726Z,40.10
2023-02-20T22:44:29.626Z,41.30
2023-02-20T22:47:16.842Z,35.90
2023-02-20T22:50:03.619Z,42.20
2023-02-20T22:52:50.670Z,40.60
2023-02-20T22:55:37.602Z,38.60
2023-02-20T22:58:24.541Z,37.30
2023-02-20T23:01:11.600Z,41.20
2023-02-20T23:03:59.164Z,38.10
2023-02-20T23:06:46.127Z,36.10
2023-02-20T23:09:33.656Z,35.40
2023-02-20T23:12:20.303Z,41.20
2023-02-20T23:15:07.290Z,35.40
2023-02-20T23:17:54.438Z,41.00
2023-02-20T23:20:42.450Z,38.60
2023-02-20T23:23:30.627Z,41.60
2023-02-20T23:26:18.175Z,35.70
2023-02-20T23:29:05.259Z,39.70
2023-02-20T23:31:59.826Z,42.10
2023-02-20T23:34:49.336Z,37.70
2023-02-20T23:37:35.933Z,36.30
2023-02-20T23:40:30.838Z,35.00
2023-02-20T23:43:26.157Z,34.50
2023-02-20T23:46:14.078Z,32.60
2023-02-20T23:49:01.277Z,37.50
2023-02-20T23:51:50.555Z,36.80
2023-02-20T23:54:37.690Z,39.60
2023-02-20T23:57:24.602Z,39.50
